sensor_id;sensor_type;location;lat;lon;timestamp;temperature;humidity
4874;DHT22;2451;49.970;9.068;2022-09-09T00:00:55;15.50;99.90
4874;DHT22;2451;49.970;9.068;2022-09-09T00:04:35;15.60;99.90
4874;DHT22;2451;49.970;9.068;2022-09-09T00:07:00;15.60;99.90
4874;DHT22;2451;49.970;9.068;2022-09-09T00:10:09;15.60;99.90
4874;DHT22;2451;49.970;9.068;2022-09-09T00:12:34;15.60;99.90
4874;DHT22;2451;49.970;9.068;2022-09-09T00:15:23;15.60;99.90
4874;DHT22;2451;49.970;9.068;2022-09-09T00:18:27;15.60;99.90
4874;DHT22;2451;49.970;9.068;2022-09-09T00:21:16;15.60;99.90
4874;DHT22;2451;49.970;9.068;2022-09-09T00:23:49;15.60;99.90
4874;DHT22;2451;49.970;9.068;2022-09-09T00:26:33;15.60;99.90
4874;DHT22;2451;49.970;9.068;2022-09-09T00:29:18;15.60;99.90
4874;DHT22;2451;49.970;9.068;2022-09-09T00:31:47;15.60;99.90
4874;DHT22;2451;49.970;9.068;2022-09-09T00:34:21;15.60;99.90
4874;DHT22;2451;49.970;9.068;2022-09-09T00:36:50;15.60;99.90
4874;DHT22;2451;49.970;9.068;2022-09-09T00:39:38;15.60;99.90
4874;DHT22;2451;49.970;9.068;2022-09-09T00:42:18;15.60;99.90
4874;DHT22;2451;49.970;9.068;2022-09-09T00:58:24;15.50;99.90
4874;DHT22;2451;49.970;9.068;2022-09-09T01:00:57;15.50;99.90
4874;DHT22;2451;49.970;9.068;2022-09-09T01:03:52;15.50;99.90
4874;DHT22;2451;49.970;9.068;2022-09-09T01:06:32;15.50;99.90
4874;DHT22;2451;49.970;9.068;2022-09-09T01:12:01;15.50;99.90
4874;DHT22;2451;49.970;9.068;2022-09-09T01:25:22;15.70;99.90
4874;DHT22;2451;49.970;9.068;2022-09-09T01:27:52;15.70;99.90
4874;DHT22;2451;49.970;9.068;2022-09-09T01:30:19;15.70;99.90
4874;DHT22;2451;49.970;9.068;2022-09-09T01:32:48;15.70;99.90
4874;DHT22;2451;49.970;9.068;2022-09-09T01:37:56;15.60;99.90
4874;DHT22;2451;49.970;9.068;2022-09-09T01:40:22;15.60;99.90
4874;DHT22;2451;49.970;9.068;2022-09-09T01:42:48;15.70;99.90
4874;DHT22;2451;49.970;9.068;2022-09-09T01:45:14;15.70;99.90
4874;DHT22;2451;49.970;9.068;2022-09-09T01:47:40;15.60;99.90
4874;DHT22;2451;49.970;9.068;2022-09-09T01:50:08;15.60;99.90
4874;DHT22;2451;49.970;9.068;2022-09-09T01:52:37;15.60;99.90
4874;DHT22;2451;49.970;9.068;2022-09-09T01:55:04;15.60;99.90
4874;DHT22;2451;49.970;9.068;2022-09-09T01:57:31;15.60;99.90
4874;DHT22;2451;49.970;9.068;2022-09-09T02:02:38;15.50;99.90
4874;DHT22;2451;49.970;9.068;2022-09-09T02:05:38;15.50;99.90
4874;DHT22;2451;49.970;9.068;2022-09-09T02:08:17;15.50;99.90
4874;DHT22;2451;49.970;9.068;2022-09-09T02:11:14;15.40;99.90
4874;DHT22;2451;49.970;9.068;2022-09-09T02:13:43;15.40;99.90
4874;DHT22;2451;49.970;9.068;2022-09-09T02:16:44;15.30;99.90
4874;DHT22;2451;49.970;9.068;2022-09-09T02:19:19;15.30;99.90
4874;DHT22;2451;49.970;9.068;2022-09-09T02:21:49;15.30;99.90
4874;DHT22;2451;49.970;9.068;2022-09-09T02:24:16;15.30;99.90
4874;DHT22;2451;49.970;9.068;2022-09-09T02:26:43;15.20;99.90
4874;DHT22;2451;49.970;9.068;2022-09-09T02:29:27;15.20;99.90
4874;DHT22;2451;49.970;9.068;2022-09-09T02:31:57;15.30;99.90
4874;DHT22;2451;49.970;9.068;2022-09-09T02:34:23;15.30;99.90
4874;DHT22;2451;49.970;9.068;2022-09-09T02:36:50;15.20;99.90
4874;DHT22;2451;49.970;9.068;2022-09-09T02:39:18;15.20;99.90
4874;DHT22;2451;49.970;9.068;2022-09-09T02:41:44;15.20;99.90
4874;DHT22;2451;49.970;9.068;2022-09-09T02:44:12;15.20;99.90
4874;DHT22;2451;49.970;9.068;2022-09-09T02:47:04;15.20;99.90
4874;DHT22;2451;49.970;9.068;2022-09-09T02:52:15;15.20;99.90
4874;DHT22;2451;49.970;9.068;2022-09-09T02:54:41;15.20;99.90
4874;DHT22;2451;49.970;9.068;2022-09-09T02:57:25;15.20;99.90
4874;DHT22;2451;49.970;9.068;2022-09-09T02:59:53;15.30;99.90
4874;DHT22;2451;49.970;9.068;2022-09-09T03:02:19;15.30;99.90
4874;DHT22;2451;49.970;9.068;2022-09-09T03:04:45;15.30;99.90
4874;DHT22;2451;49.970;9.068;2022-09-09T03:07:16;15.30;99.90
4874;DHT22;2451;49.970;9.068;2022-09-09T03:09:42;15.30;99.90
4874;DHT22;2451;49.970;9.068;2022-09-09T03:12:08;15.30;99.90
4874;DHT22;2451;49.970;9.068;2022-09-09T03:14:35;15.30;99.90
4874;DHT22;2451;49.970;9.068;2022-09-09T03:17:01;15.30;99.90
4874;DHT22;2451;49.970;9.068;2022-09-09T03:19:27;15.30;99.90
4874;DHT22;2451;49.970;9.068;2022-09-09T03:21:53;15.30;99.90
4874;DHT22;2451;49.970;9.068;2022-09-09T03:24:20;15.30;99.90
4874;DHT22;2451;49.970;9.068;2022-09-09T03:26:45;15.30;99.90
4874;DHT22;2451;49.970;9.068;2022-09-09T03:29:12;15.30;99.90
4874;DHT22;2451;49.970;9.068;2022-09-09T03:31:38;15.30;99.90
4874;DHT22;2451;49.970;9.068;2022-09-09T03:34:04;15.30;99.90
4874;DHT22;2451;49.970;9.068;2022-09-09T03:36:30;15.30;99.90
4874;DHT22;2451;49.970;9.068;2022-09-09T03:38:56;15.30;99.90
4874;DHT22;2451;49.970;9.068;2022-09-09T03:41:23;15.30;99.90
4874;DHT22;2451;49.970;9.068;2022-09-09T03:43:53;15.30;99.90
4874;DHT22;2451;49.970;9.068;2022-09-09T03:46:20;15.30;99.90
4874;DHT22;2451;49.970;9.068;2022-09-09T03:48:46;15.40;99.90
4874;DHT22;2451;49.970;9.068;2022-09-09T03:51:12;15.30;99.90
4874;DHT22;2451;49.970;9.068;2022-09-09T03:53:37;15.30;99.90
4874;DHT22;2451;49.970;9.068;2022-09-09T03:56:04;15.30;99.90
4874;DHT22;2451;49.970;9.068;2022-09-09T03:58:35;15.30;99.90
4874;DHT22;2451;49.970;9.068;2022-09-09T04:01:19;15.20;99.90
4874;DHT22;2451;49.970;9.068;2022-09-09T04:03:45;15.20;99.90
4874;DHT22;2451;49.970;9.068;2022-09-09T04:06:12;15.20;99.90
4874;DHT22;2451;49.970;9.068;2022-09-09T04:08:39;15.20;99.90
4874;DHT22;2451;49.970;9.068;2022-09-09T04:11:05;15.20;99.90
4874;DHT22;2451;49.970;9.068;2022-09-09T04:13:33;15.20;99.90
4874;DHT22;2451;49.970;9.068;2022-09-09T04:16:00;15.20;99.90
4874;DHT22;2451;49.970;9.068;2022-09-09T04:18:27;15.10;99.90
4874;DHT22;2451;49.970;9.068;2022-09-09T04:20:56;15.10;99.90
4874;DHT22;2451;49.970;9.068;2022-09-09T04:23:24;15.10;99.90
4874;DHT22;2451;49.970;9.068;2022-09-09T04:25:52;15.00;99.90
4874;DHT22;2451;49.970;9.068;2022-09-09T04:28:20;15.10;99.90
4874;DHT22;2451;49.970;9.068;2022-09-09T04:30:47;15.00;99.90
4874;DHT22;2451;49.970;9.068;2022-09-09T04:33:13;15.10;99.90
4874;DHT22;2451;49.970;9.068;2022-09-09T04:35:43;15.00;99.90
4874;DHT22;2451;49.970;9.068;2022-09-09T04:38:09;15.10;99.90
4874;DHT22;2451;49.970;9.068;2022-09-09T04:40:35;15.10;99.90
4874;DHT22;2451;49.970;9.068;2022-09-09T04:43:02;15.00;99.90
4874;DHT22;2451;49.970;9.068;2022-09-09T04:45:30;14.90;99.90
4874;DHT22;2451;49.970;9.068;2022-09-09T04:47:56;14.90;99.90
4874;DHT22;2451;49.970;9.068;2022-09-09T04:50:22;14.80;99.90
4874;DHT22;2451;49.970;9.068;2022-09-09T04:52:47;14.80;99.90
4874;DHT22;2451;49.970;9.068;2022-09-09T04:55:13;14.70;99.90
4874;DHT22;2451;49.970;9.068;2022-09-09T04:57:40;14.70;99.90
4874;DHT22;2451;49.970;9.068;2022-09-09T05:00:06;14.70;99.90
4874;DHT22;2451;49.970;9.068;2022-09-09T05:02:32;14.70;99.90
4874;DHT22;2451;49.970;9.068;2022-09-09T05:04:58;14.70;99.90
4874;DHT22;2451;49.970;9.068;2022-09-09T05:07:26;14.70;99.90
4874;DHT22;2451;49.970;9.068;2022-09-09T05:09:52;14.70;99.90
4874;DHT22;2451;49.970;9.068;2022-09-09T05:12:17;14.70;99.90
4874;DHT22;2451;49.970;9.068;2022-09-09T05:14:43;14.70;99.90
4874;DHT22;2451;49.970;9.068;2022-09-09T05:17:09;14.70;99.90
4874;DHT22;2451;49.970;9.068;2022-09-09T05:19:36;14.80;99.90
4874;DHT22;2451;49.970;9.068;2022-09-09T05:22:02;14.80;99.90
4874;DHT22;2451;49.970;9.068;2022-09-09T05:24:27;14.90;99.90
4874;DHT22;2451;49.970;9.068;2022-09-09T05:26:53;15.00;99.90
4874;DHT22;2451;49.970;9.068;2022-09-09T05:29:19;15.10;99.90
4874;DHT22;2451;49.970;9.068;2022-09-09T05:31:45;15.10;99.90
4874;DHT22;2451;49.970;9.068;2022-09-09T05:34:11;15.20;99.90
4874;DHT22;2451;49.970;9.068;2022-09-09T05:36:37;15.30;99.90
4874;DHT22;2451;49.970;9.068;2022-09-09T05:39:03;15.30;99.90
4874;DHT22;2451;49.970;9.068;2022-09-09T05:41:28;15.30;99.90
4874;DHT22;2451;49.970;9.068;2022-09-09T05:43:54;15.40;99.90
4874;DHT22;2451;49.970;9.068;2022-09-09T05:46:22;15.40;99.90
4874;DHT22;2451;49.970;9.068;2022-09-09T05:48:50;15.50;99.90
4874;DHT22;2451;49.970;9.068;2022-09-09T05:51:19;15.50;99.90
4874;DHT22;2451;49.970;9.068;2022-09-09T05:53:47;15.70;99.90
4874;DHT22;2451;49.970;9.068;2022-09-09T05:56:18;15.70;99.90
4874;DHT22;2451;49.970;9.068;2022-09-09T05:58:45;15.80;99.90
4874;DHT22;2451;49.970;9.068;2022-09-09T06:01:21;15.90;99.90
4874;DHT22;2451;49.970;9.068;2022-09-09T06:03:48;16.10;99.90
4874;DHT22;2451;49.970;9.068;2022-09-09T06:06:17;16.20;99.90
4874;DHT22;2451;49.970;9.068;2022-09-09T06:08:46;16.30;99.90
4874;DHT22;2451;49.970;9.068;2022-09-09T06:13:39;16.50;99.90
4874;DHT22;2451;49.970;9.068;2022-09-09T06:16:12;16.60;99.90
4874;DHT22;2451;49.970;9.068;2022-09-09T06:18:38;16.70;99.90
4874;DHT22;2451;49.970;9.068;2022-09-09T06:21:07;16.90;99.90
4874;DHT22;2451;49.970;9.068;2022-09-09T06:23:35;16.90;99.90
4874;DHT22;2451;49.970;9.068;2022-09-09T06:26:06;17.00;99.90
4874;DHT22;2451;49.970;9.068;2022-09-09T06:28:35;17.00;99.90
4874;DHT22;2451;49.970;9.068;2022-09-09T06:31:06;17.00;99.90
4874;DHT22;2451;49.970;9.068;2022-09-09T06:33:33;17.10;99.90
4874;DHT22;2451;49.970;9.068;2022-09-09T06:36:01;17.40;99.90
4874;DHT22;2451;49.970;9.068;2022-09-09T06:38:27;17.70;99.90
4874;DHT22;2451;49.970;9.068;2022-09-09T06:40:57;17.90;99.90
4874;DHT22;2451;49.970;9.068;2022-09-09T06:43:24;18.00;99.90
4874;DHT22;2451;49.970;9.068;2022-09-09T06:45:55;18.10;99.90
4874;DHT22;2451;49.970;9.068;2022-09-09T06:48:21;18.30;99.90
4874;DHT22;2451;49.970;9.068;2022-09-09T06:50:46;18.50;99.90
4874;DHT22;2451;49.970;9.068;2022-09-09T06:53:12;18.50;99.90
4874;DHT22;2451;49.970;9.068;2022-09-09T06:55:37;18.50;99.90
4874;DHT22;2451;49.970;9.068;2022-09-09T06:58:08;18.60;99.90
4874;DHT22;2451;49.970;9.068;2022-09-09T07:00:34;18.80;99.90
4874;DHT22;2451;49.970;9.068;2022-09-09T07:02:59;19.00;99.90
4874;DHT22;2451;49.970;9.068;2022-09-09T07:05:25;19.20;99.90
4874;DHT22;2451;49.970;9.068;2022-09-09T07:07:51;19.50;99.90
4874;DHT22;2451;49.970;9.068;2022-09-09T07:10:17;19.70;99.90
4874;DHT22;2451;49.970;9.068;2022-09-09T07:12:43;19.90;99.90
4874;DHT22;2451;49.970;9.068;2022-09-09T07:15:09;20.20;99.90
4874;DHT22;2451;49.970;9.068;2022-09-09T07:17:35;20.50;99.90
4874;DHT22;2451;49.970;9.068;2022-09-09T07:20:01;20.60;99.90
4874;DHT22;2451;49.970;9.068;2022-09-09T07:22:27;20.80;99.90
4874;DHT22;2451;49.970;9.068;2022-09-09T07:24:53;20.90;99.90
4874;DHT22;2451;49.970;9.068;2022-09-09T07:27:19;20.80;99.90
4874;DHT22;2451;49.970;9.068;2022-09-09T07:29:44;20.60;99.90
4874;DHT22;2451;49.970;9.068;2022-09-09T07:32:11;20.50;99.90
4874;DHT22;2451;49.970;9.068;2022-09-09T07:34:36;20.60;99.90
4874;DHT22;2451;49.970;9.068;2022-09-09T07:37:02;20.70;99.90
4874;DHT22;2451;49.970;9.068;2022-09-09T07:39:28;20.70;99.90
4874;DHT22;2451;49.970;9.068;2022-09-09T07:41:53;20.70;99.90
4874;DHT22;2451;49.970;9.068;2022-09-09T07:44:24;20.50;99.90
4874;DHT22;2451;49.970;9.068;2022-09-09T07:46:50;20.20;99.90
4874;DHT22;2451;49.970;9.068;2022-09-09T07:49:16;20.00;99.90
4874;DHT22;2451;49.970;9.068;2022-09-09T07:51:45;19.80;99.90
4874;DHT22;2451;49.970;9.068;2022-09-09T07:54:13;19.60;99.90
4874;DHT22;2451;49.970;9.068;2022-09-09T07:56:40;19.40;99.90
4874;DHT22;2451;49.970;9.068;2022-09-09T07:59:06;19.30;99.90
4874;DHT22;2451;49.970;9.068;2022-09-09T08:01:34;19.30;99.90
4874;DHT22;2451;49.970;9.068;2022-09-09T08:04:08;19.30;99.90
4874;DHT22;2451;49.970;9.068;2022-09-09T08:06:39;19.20;99.90
4874;DHT22;2451;49.970;9.068;2022-09-09T08:09:05;19.20;99.90
4874;DHT22;2451;49.970;9.068;2022-09-09T08:11:32;19.20;99.90
4874;DHT22;2451;49.970;9.068;2022-09-09T08:13:59;19.20;99.90
4874;DHT22;2451;49.970;9.068;2022-09-09T08:16:27;19.20;99.90
4874;DHT22;2451;49.970;9.068;2022-09-09T08:18:53;19.30;99.90
4874;DHT22;2451;49.970;9.068;2022-09-09T08:21:29;19.30;99.90
4874;DHT22;2451;49.970;9.068;2022-09-09T08:23:56;19.40;99.90
4874;DHT22;2451;49.970;9.068;2022-09-09T08:26:30;19.50;99.90
4874;DHT22;2451;49.970;9.068;2022-09-09T08:28:57;19.50;99.90
4874;DHT22;2451;49.970;9.068;2022-09-09T08:31:25;19.50;99.90
4874;DHT22;2451;49.970;9.068;2022-09-09T08:33:51;19.50;99.90
4874;DHT22;2451;49.970;9.068;2022-09-09T08:36:19;19.50;99.90
4874;DHT22;2451;49.970;9.068;2022-09-09T08:38:49;19.70;99.90
4874;DHT22;2451;49.970;9.068;2022-09-09T08:46:44;20.10;99.90
4874;DHT22;2451;49.970;9.068;2022-09-09T08:49:24;20.00;99.90
4874;DHT22;2451;49.970;9.068;2022-09-09T08:51:57;19.90;99.90
4874;DHT22;2451;49.970;9.068;2022-09-09T08:54:23;20.00;99.90
4874;DHT22;2451;49.970;9.068;2022-09-09T08:56:50;20.40;99.90
4874;DHT22;2451;49.970;9.068;2022-09-09T08:59:17;20.80;99.90
4874;DHT22;2451;49.970;9.068;2022-09-09T09:01:56;21.30;99.90
4874;DHT22;2451;49.970;9.068;2022-09-09T09:10:22;22.00;99.90
4874;DHT22;2451;49.970;9.068;2022-09-09T09:12:50;22.50;99.90
4874;DHT22;2451;49.970;9.068;2022-09-09T09:15:23;22.90;99.90
4874;DHT22;2451;49.970;9.068;2022-09-09T09:17:49;23.00;99.90
4874;DHT22;2451;49.970;9.068;2022-09-09T09:20:16;23.00;99.90
4874;DHT22;2451;49.970;9.068;2022-09-09T09:22:50;23.00;99.90
4874;DHT22;2451;49.970;9.068;2022-09-09T09:25:20;22.80;99.90
4874;DHT22;2451;49.970;9.068;2022-09-09T09:27:57;22.70;99.90
4874;DHT22;2451;49.970;9.068;2022-09-09T09:30:31;22.50;99.90
4874;DHT22;2451;49.970;9.068;2022-09-09T09:33:18;22.20;99.90
4874;DHT22;2451;49.970;9.068;2022-09-09T09:35:46;22.00;99.90
4874;DHT22;2451;49.970;9.068;2022-09-09T09:38:17;21.80;99.90
4874;DHT22;2451;49.970;9.068;2022-09-09T09:40:54;21.60;99.90
4874;DHT22;2451;49.970;9.068;2022-09-09T09:43:40;21.40;99.90
4874;DHT22;2451;49.970;9.068;2022-09-09T09:46:20;21.50;99.90
4874;DHT22;2451;49.970;9.068;2022-09-09T09:49:05;21.70;99.90
4874;DHT22;2451;49.970;9.068;2022-09-09T09:51:34;21.90;99.90
4874;DHT22;2451;49.970;9.068;2022-09-09T09:54:28;22.20;99.90
4874;DHT22;2451;49.970;9.068;2022-09-09T09:56:55;22.20;99.90
4874;DHT22;2451;49.970;9.068;2022-09-09T09:59:36;21.90;99.90
4874;DHT22;2451;49.970;9.068;2022-09-09T10:04:43;21.90;99.90
4874;DHT22;2451;49.970;9.068;2022-09-09T10:07:27;21.80;99.90
4874;DHT22;2451;49.970;9.068;2022-09-09T10:09:54;21.70;99.90
4874;DHT22;2451;49.970;9.068;2022-09-09T10:20:42;21.40;99.90
4874;DHT22;2451;49.970;9.068;2022-09-09T10:26:58;21.90;99.90
4874;DHT22;2451;49.970;9.068;2022-09-09T10:29:54;21.80;99.90
4874;DHT22;2451;49.970;9.068;2022-09-09T10:32:41;21.80;99.90
4874;DHT22;2451;49.970;9.068;2022-09-09T10:35:12;22.00;99.90
4874;DHT22;2451;49.970;9.068;2022-09-09T10:43:01;21.70;99.90
4874;DHT22;2451;49.970;9.068;2022-09-09T10:45:41;21.90;99.90
4874;DHT22;2451;49.970;9.068;2022-09-09T10:48:25;22.20;99.90
4874;DHT22;2451;49.970;9.068;2022-09-09T10:51:23;22.50;99.90
4874;DHT22;2451;49.970;9.068;2022-09-09T10:56:33;23.60;99.90
4874;DHT22;2451;49.970;9.068;2022-09-09T11:01:43;24.20;99.90
4874;DHT22;2451;49.970;9.068;2022-09-09T11:04:23;24.30;99.90
4874;DHT22;2451;49.970;9.068;2022-09-09T11:06:54;23.70;99.90
4874;DHT22;2451;49.970;9.068;2022-09-09T11:09:26;23.50;99.90
4874;DHT22;2451;49.970;9.068;2022-09-09T11:11:55;23.70;99.90
4874;DHT22;2451;49.970;9.068;2022-09-09T11:14:49;23.40;99.90
4874;DHT22;2451;49.970;9.068;2022-09-09T11:17:16;23.90;99.90
4874;DHT22;2451;49.970;9.068;2022-09-09T11:19:44;24.00;99.90
4874;DHT22;2451;49.970;9.068;2022-09-09T11:22:36;24.00;99.90
4874;DHT22;2451;49.970;9.068;2022-09-09T11:28:58;24.40;99.90
4874;DHT22;2451;49.970;9.068;2022-09-09T11:42:26;24.90;98.50
4874;DHT22;2451;49.970;9.068;2022-09-09T11:44:52;24.50;99.10
4874;DHT22;2451;49.970;9.068;2022-09-09T11:47:27;23.50;98.00
4874;DHT22;2451;49.970;9.068;2022-09-09T11:50:26;22.80;99.90
4874;DHT22;2451;49.970;9.068;2022-09-09T11:55:39;22.00;99.90
4874;DHT22;2451;49.970;9.068;2022-09-09T12:00:41;21.80;99.50
4874;DHT22;2451;49.970;9.068;2022-09-09T12:06:13;21.70;99.70
4874;DHT22;2451;49.970;9.068;2022-09-09T12:08:43;21.70;99.90
4874;DHT22;2451;49.970;9.068;2022-09-09T12:11:10;22.10;99.30
4874;DHT22;2451;49.970;9.068;2022-09-09T12:13:36;22.40;99.90
4874;DHT22;2451;49.970;9.068;2022-09-09T12:16:02;22.20;99.90
4874;DHT22;2451;49.970;9.068;2022-09-09T12:18:38;22.40;99.90
4874;DHT22;2451;49.970;9.068;2022-09-09T12:24:11;23.70;99.90
4874;DHT22;2451;49.970;9.068;2022-09-09T12:26:46;24.10;99.90
4874;DHT22;2451;49.970;9.068;2022-09-09T12:29:24;24.90;99.90
4874;DHT22;2451;49.970;9.068;2022-09-09T12:32:10;25.70;98.70
4874;DHT22;2451;49.970;9.068;2022-09-09T12:34:40;25.70;96.20
4874;DHT22;2451;49.970;9.068;2022-09-09T12:37:34;26.00;95.30
4874;DHT22;2451;49.970;9.068;2022-09-09T12:40:03;25.80;92.80
4874;DHT22;2451;49.970;9.068;2022-09-09T12:42:30;25.90;92.60
4874;DHT22;2451;49.970;9.068;2022-09-09T12:45:03;25.50;92.80
4874;DHT22;2451;49.970;9.068;2022-09-09T12:47:45;25.20;95.90
4874;DHT22;2451;49.970;9.068;2022-09-09T12:50:17;25.00;95.60
4874;DHT22;2451;49.970;9.068;2022-09-09T12:52:44;24.80;94.70
4874;DHT22;2451;49.970;9.068;2022-09-09T12:55:23;24.60;96.00
4874;DHT22;2451;49.970;9.068;2022-09-09T12:57:50;24.30;95.70
4874;DHT22;2451;49.970;9.068;2022-09-09T13:00:20;24.10;96.80
4874;DHT22;2451;49.970;9.068;2022-09-09T13:02:50;24.10;97.90
4874;DHT22;2451;49.970;9.068;2022-09-09T13:05:22;23.90;97.10
4874;DHT22;2451;49.970;9.068;2022-09-09T13:07:48;23.70;97.70
4874;DHT22;2451;49.970;9.068;2022-09-09T13:10:21;23.30;98.10
4874;DHT22;2451;49.970;9.068;2022-09-09T13:12:49;23.10;98.60
4874;DHT22;2451;49.970;9.068;2022-09-09T13:15:26;22.90;99.30
4874;DHT22;2451;49.970;9.068;2022-09-09T13:17:59;22.60;99.50
4874;DHT22;2451;49.970;9.068;2022-09-09T13:20:27;22.50;99.00
4874;DHT22;2451;49.970;9.068;2022-09-09T13:22:55;22.50;99.40
4874;DHT22;2451;49.970;9.068;2022-09-09T13:25:26;22.40;99.70
4874;DHT22;2451;49.970;9.068;2022-09-09T13:30:30;22.30;99.60
4874;DHT22;2451;49.970;9.068;2022-09-09T13:33:21;22.30;99.10
4874;DHT22;2451;49.970;9.068;2022-09-09T13:35:56;22.30;99.90
4874;DHT22;2451;49.970;9.068;2022-09-09T13:38:23;22.30;99.90
4874;DHT22;2451;49.970;9.068;2022-09-09T13:41:02;22.20;99.80
4874;DHT22;2451;49.970;9.068;2022-09-09T13:43:45;22.10;99.90
4874;DHT22;2451;49.970;9.068;2022-09-09T13:48:57;22.10;99.80
4874;DHT22;2451;49.970;9.068;2022-09-09T13:51:37;22.00;99.30
4874;DHT22;2451;49.970;9.068;2022-09-09T13:54:09;21.90;99.40
4874;DHT22;2451;49.970;9.068;2022-09-09T13:56:35;21.80;99.70
4874;DHT22;2451;49.970;9.068;2022-09-09T13:59:03;21.80;99.90
4874;DHT22;2451;49.970;9.068;2022-09-09T14:01:29;21.70;99.90
4874;DHT22;2451;49.970;9.068;2022-09-09T14:03:55;21.60;99.90
4874;DHT22;2451;49.970;9.068;2022-09-09T14:06:22;21.50;99.90
4874;DHT22;2451;49.970;9.068;2022-09-09T14:08:49;21.40;99.90
4874;DHT22;2451;49.970;9.068;2022-09-09T14:11:15;21.40;99.90
4874;DHT22;2451;49.970;9.068;2022-09-09T14:13:41;21.30;99.90
4874;DHT22;2451;49.970;9.068;2022-09-09T14:16:07;21.30;99.90
4874;DHT22;2451;49.970;9.068;2022-09-09T14:18:32;21.30;99.90
4874;DHT22;2451;49.970;9.068;2022-09-09T14:20:59;21.20;99.90
4874;DHT22;2451;49.970;9.068;2022-09-09T14:23:25;21.20;99.90
4874;DHT22;2451;49.970;9.068;2022-09-09T14:25:51;21.10;99.90
4874;DHT22;2451;49.970;9.068;2022-09-09T14:28:17;21.10;99.90
4874;DHT22;2451;49.970;9.068;2022-09-09T14:30:44;21.20;99.90
4874;DHT22;2451;49.970;9.068;2022-09-09T14:33:11;21.50;99.90
4874;DHT22;2451;49.970;9.068;2022-09-09T14:35:37;21.80;99.90
4874;DHT22;2451;49.970;9.068;2022-09-09T14:38:04;21.90;99.90
4874;DHT22;2451;49.970;9.068;2022-09-09T14:40:30;22.20;99.90
4874;DHT22;2451;49.970;9.068;2022-09-09T14:42:56;22.80;99.90
4874;DHT22;2451;49.970;9.068;2022-09-09T14:45:23;23.30;99.90
4874;DHT22;2451;49.970;9.068;2022-09-09T14:47:50;23.60;99.90
4874;DHT22;2451;49.970;9.068;2022-09-09T14:50:16;23.50;99.90
4874;DHT22;2451;49.970;9.068;2022-09-09T14:52:42;23.10;99.50
4874;DHT22;2451;49.970;9.068;2022-09-09T14:55:08;22.80;99.70
4874;DHT22;2451;49.970;9.068;2022-09-09T14:57:33;22.60;99.90
4874;DHT22;2451;49.970;9.068;2022-09-09T15:00:02;22.70;99.90
4874;DHT22;2451;49.970;9.068;2022-09-09T15:02:28;22.50;99.90
4874;DHT22;2451;49.970;9.068;2022-09-09T15:04:55;22.50;99.90
4874;DHT22;2451;49.970;9.068;2022-09-09T15:07:22;22.40;99.90
4874;DHT22;2451;49.970;9.068;2022-09-09T15:09:48;22.20;99.90
4874;DHT22;2451;49.970;9.068;2022-09-09T15:12:15;21.90;99.90
4874;DHT22;2451;49.970;9.068;2022-09-09T15:14:41;21.60;99.90
4874;DHT22;2451;49.970;9.068;2022-09-09T15:17:06;21.40;99.90
4874;DHT22;2451;49.970;9.068;2022-09-09T15:19:32;21.30;99.90
4874;DHT22;2451;49.970;9.068;2022-09-09T15:21:58;21.10;99.90
4874;DHT22;2451;49.970;9.068;2022-09-09T15:24:25;21.00;99.90
4874;DHT22;2451;49.970;9.068;2022-09-09T15:26:51;21.00;99.90
4874;DHT22;2451;49.970;9.068;2022-09-09T15:29:17;21.00;99.90
4874;DHT22;2451;49.970;9.068;2022-09-09T15:31:44;21.00;99.90
4874;DHT22;2451;49.970;9.068;2022-09-09T15:34:09;21.00;99.90
4874;DHT22;2451;49.970;9.068;2022-09-09T15:39:03;20.90;99.90
4874;DHT22;2451;49.970;9.068;2022-09-09T15:41:30;20.80;99.90
4874;DHT22;2451;49.970;9.068;2022-09-09T15:43:57;20.70;99.90
4874;DHT22;2451;49.970;9.068;2022-09-09T15:48:51;20.50;99.90
4874;DHT22;2451;49.970;9.068;2022-09-09T15:51:17;20.50;99.90
4874;DHT22;2451;49.970;9.068;2022-09-09T15:53:44;20.40;99.90
4874;DHT22;2451;49.970;9.068;2022-09-09T15:56:10;20.30;99.90
4874;DHT22;2451;49.970;9.068;2022-09-09T15:58:36;20.20;99.90
4874;DHT22;2451;49.970;9.068;2022-09-09T16:01:06;20.20;99.90
4874;DHT22;2451;49.970;9.068;2022-09-09T16:03:36;20.20;99.90
4874;DHT22;2451;49.970;9.068;2022-09-09T16:06:05;20.20;99.90
4874;DHT22;2451;49.970;9.068;2022-09-09T16:08:35;20.10;99.90
4874;DHT22;2451;49.970;9.068;2022-09-09T16:11:08;20.10;99.90
4874;DHT22;2451;49.970;9.068;2022-09-09T16:13:38;20.00;99.90
4874;DHT22;2451;49.970;9.068;2022-09-09T16:16:05;20.00;99.90
4874;DHT22;2451;49.970;9.068;2022-09-09T16:21:01;19.90;99.90
4874;DHT22;2451;49.970;9.068;2022-09-09T16:23:26;19.90;99.90
4874;DHT22;2451;49.970;9.068;2022-09-09T16:25:55;19.90;99.90
4874;DHT22;2451;49.970;9.068;2022-09-09T16:28:21;19.80;99.90
4874;DHT22;2451;49.970;9.068;2022-09-09T16:30:48;19.90;99.90
4874;DHT22;2451;49.970;9.068;2022-09-09T16:33:13;20.00;99.90
4874;DHT22;2451;49.970;9.068;2022-09-09T16:35:42;20.00;99.90
4874;DHT22;2451;49.970;9.068;2022-09-09T16:38:09;20.10;99.90
4874;DHT22;2451;49.970;9.068;2022-09-09T16:40:38;20.20;99.90
4874;DHT22;2451;49.970;9.068;2022-09-09T16:43:04;20.10;99.90
4874;DHT22;2451;49.970;9.068;2022-09-09T16:45:31;20.10;99.90
4874;DHT22;2451;49.970;9.068;2022-09-09T16:47:58;20.10;99.90
4874;DHT22;2451;49.970;9.068;2022-09-09T16:50:23;20.10;99.90
4874;DHT22;2451;49.970;9.068;2022-09-09T16:52:50;20.00;99.90
4874;DHT22;2451;49.970;9.068;2022-09-09T16:55:16;20.00;99.90
4874;DHT22;2451;49.970;9.068;2022-09-09T16:57:41;19.90;99.90
4874;DHT22;2451;49.970;9.068;2022-09-09T17:00:07;19.90;99.90
4874;DHT22;2451;49.970;9.068;2022-09-09T17:02:33;19.80;99.90
4874;DHT22;2451;49.970;9.068;2022-09-09T17:04:59;19.80;99.90
4874;DHT22;2451;49.970;9.068;2022-09-09T17:07:25;19.70;99.90
4874;DHT22;2451;49.970;9.068;2022-09-09T17:09:50;19.70;99.90
4874;DHT22;2451;49.970;9.068;2022-09-09T17:12:16;19.60;99.90
4874;DHT22;2451;49.970;9.068;2022-09-09T17:14:43;19.50;99.90
4874;DHT22;2451;49.970;9.068;2022-09-09T17:17:08;19.50;99.90
4874;DHT22;2451;49.970;9.068;2022-09-09T17:19:34;19.40;99.90
4874;DHT22;2451;49.970;9.068;2022-09-09T17:21:59;19.30;99.90
4874;DHT22;2451;49.970;9.068;2022-09-09T17:24:26;19.20;99.90
4874;DHT22;2451;49.970;9.068;2022-09-09T17:26:52;19.10;99.90
4874;DHT22;2451;49.970;9.068;2022-09-09T17:29:19;19.00;99.90
4874;DHT22;2451;49.970;9.068;2022-09-09T17:31:45;19.00;99.90
4874;DHT22;2451;49.970;9.068;2022-09-09T17:34:10;18.90;99.90
4874;DHT22;2451;49.970;9.068;2022-09-09T17:36:37;18.80;99.90
4874;DHT22;2451;49.970;9.068;2022-09-09T17:39:03;18.70;99.90
4874;DHT22;2451;49.970;9.068;2022-09-09T17:41:39;18.70;99.90
4874;DHT22;2451;49.970;9.068;2022-09-09T17:44:06;18.60;99.90
4874;DHT22;2451;49.970;9.068;2022-09-09T17:46:37;18.60;99.90
4874;DHT22;2451;49.970;9.068;2022-09-09T17:49:05;18.50;99.90
4874;DHT22;2451;49.970;9.068;2022-09-09T17:51:32;18.50;99.90
4874;DHT22;2451;49.970;9.068;2022-09-09T17:54:09;18.40;99.90
4874;DHT22;2451;49.970;9.068;2022-09-09T17:56:36;18.40;99.90
4874;DHT22;2451;49.970;9.068;2022-09-09T17:59:04;18.40;99.90
4874;DHT22;2451;49.970;9.068;2022-09-09T18:01:33;18.40;99.90
4874;DHT22;2451;49.970;9.068;2022-09-09T18:04:01;18.40;99.90
4874;DHT22;2451;49.970;9.068;2022-09-09T18:06:30;18.40;99.90
4874;DHT22;2451;49.970;9.068;2022-09-09T18:09:03;18.20;99.90
4874;DHT22;2451;49.970;9.068;2022-09-09T18:11:31;18.20;99.90
4874;DHT22;2451;49.970;9.068;2022-09-09T18:14:00;18.10;99.90